Time;durP1;ratioP1;P1;durP2;ratioP2;P2;SDS_P1;SDS_P2;PMS_P1;PMS_P2;Temp;Humidity;BMP_temperature;BMP_pressure;BME280_temperature;BME280_humidity;BME280_pressure;Samples;Min_cycle;Max_cycle;Signal;HPM_P1;HPM_P2
2022/09/06 00:00:57;;;;;;;7.77;5.47;;;15.20;99.90;;;;;;5065962;28;20512;-61
2022/09/06 00:03:22;;;;;;;9.93;4.87;;;15.10;99.90;;;;;;5065158;28;21027;-62
2022/09/06 00:05:49;;;;;;;6.70;5.27;;;15.10;99.90;;;;;;5064347;28;20478;-61
2022/09/06 00:08:15;;;;;;;7.37;5.77;;;15.10;99.90;;;;;;5049317;28;20218;-61
2022/09/06 00:10:41;;;;;;;6.73;5.83;;;15.10;99.90;;;;;;5065812;28;20421;-62
2022/09/06 00:13:13;;;;;;;7.40;5.47;;;15.10;99.90;;;;;;5064732;28;20444;-61
2022/09/06 00:15:39;;;;;;;11.50;5.90;;;15.10;99.90;;;;;;5064887;28;21049;-61
2022/09/06 00:18:06;;;;;;;7.27;5.00;;;15.10;99.90;;;;;;5068118;28;20437;-62
2022/09/06 00:20:33;;;;;;;8.83;6.30;;;15.00;99.90;;;;;;5065779;28;20177;-62
2022/09/06 00:23:04;;;;;;;10.90;6.37;;;15.00;99.90;;;;;;5059268;28;20476;-62
2022/09/06 00:25:30;;;;;;;10.73;5.33;;;15.00;99.90;;;;;;5064494;28;20487;-62
2022/09/06 00:27:57;;;;;;;7.23;5.10;;;15.00;99.90;;;;;;5065674;28;20916;-61
2022/09/06 00:30:23;;;;;;;6.77;5.10;;;14.90;99.90;;;;;;5064317;28;20463;-61
2022/09/06 00:32:49;;;;;;;7.50;5.30;;;14.90;99.90;;;;;;5065141;28;20505;-61
2022/09/06 00:35:16;;;;;;;5.20;4.70;;;14.90;99.90;;;;;;5067938;28;20429;-61
2022/09/06 00:37:42;;;;;;;6.70;4.77;;;14.90;99.90;;;;;;5063804;28;20194;-62
2022/09/06 00:40:08;;;;;;;11.77;6.10;;;14.90;99.90;;;;;;5066544;28;20467;-61
2022/09/06 00:42:33;;;;;;;5.43;4.93;;;14.80;99.90;;;;;;5054263;28;20312;-62
2022/09/06 00:44:59;;;;;;;6.70;4.87;;;14.80;99.90;;;;;;5064080;28;20923;-62
2022/09/06 00:47:26;;;;;;;7.50;5.47;;;14.80;99.90;;;;;;5063695;28;20182;-62
2022/09/06 00:49:55;;;;;;;8.60;4.90;;;14.80;99.90;;;;;;5066036;28;20925;-62
2022/09/06 00:52:22;;;;;;;9.07;4.80;;;14.80;99.90;;;;;;5066536;28;20468;-61
2022/09/06 00:54:49;;;;;;;6.93;5.20;;;14.80;99.90;;;;;;5063853;28;20420;-62
2022/09/06 00:57:16;;;;;;;5.83;5.10;;;14.80;99.90;;;;;;5066134;28;20428;-62
2022/09/06 00:59:44;;;;;;;9.87;4.80;;;14.80;99.90;;;;;;5065634;28;20454;-61
2022/09/06 01:02:10;;;;;;;7.27;5.33;;;14.80;99.90;;;;;;5073483;28;20490;-61
2022/09/06 01:04:39;;;;;;;7.73;6.10;;;14.70;99.90;;;;;;5057278;28;20429;-62
2022/09/06 01:07:30;;;;;;;12.70;5.43;;;14.70;99.90;;;;;;5056390;28;20424;-60
2022/09/06 01:10:05;;;;;;;9.93;6.17;;;14.70;99.90;;;;;;5061457;28;20455;-62
2022/09/06 01:12:52;;;;;;;8.57;5.33;;;14.70;99.90;;;;;;5059736;28;20432;-62
2022/09/06 01:15:44;;;;;;;5.50;4.73;;;14.70;99.90;;;;;;5065666;28;20457;-61
2022/09/06 01:18:46;;;;;;;7.70;5.30;;;14.70;99.90;;;;;;5062780;28;20425;-61
2022/09/06 01:21:23;;;;;;;7.67;5.20;;;14.70;99.90;;;;;;5061085;28;20443;-62
2022/09/06 01:24:10;;;;;;;6.10;5.10;;;14.60;99.90;;;;;;5064206;28;20818;-61
2022/09/06 01:27:05;;;;;;;9.30;6.10;;;14.60;99.90;;;;;;5066409;28;20480;-62
2022/09/06 01:29:57;;;;;;;5.80;4.80;;;14.60;99.90;;;;;;5067672;28;20555;-61
2022/09/06 01:32:23;;;;;;;5.87;4.90;;;14.60;99.90;;;;;;5066724;28;20812;-61
2022/09/06 01:35:13;;;;;;;8.13;4.97;;;14.60;99.90;;;;;;5045345;28;20429;-61
2022/09/06 01:37:39;;;;;;;7.23;5.30;;;14.60;99.90;;;;;;5051386;28;20178;-61
2022/09/06 01:40:05;;;;;;;7.93;5.70;;;14.60;99.90;;;;;;5064914;28;20439;-62
2022/09/06 01:42:34;;;;;;;8.40;6.23;;;14.60;99.90;;;;;;5062813;28;20223;-61
2022/09/06 01:45:07;;;;;;;6.57;5.40;;;14.50;99.90;;;;;;5063491;28;20796;-61
2022/09/06 01:48:18;;;;;;;7.03;5.57;;;14.50;99.90;;;;;;5046420;28;20467;-62
2022/09/06 01:50:59;;;;;;;7.90;5.30;;;14.50;99.90;;;;;;5058295;28;20429;-61
2022/09/06 01:53:52;;;;;;;7.43;5.27;;;14.50;99.90;;;;;;5058447;28;20514;-61
2022/09/06 01:56:49;;;;;;;9.90;6.00;;;14.50;99.90;;;;;;5053405;28;20491;-61
2022/09/06 01:59:23;;;;;;;6.83;5.30;;;14.50;99.90;;;;;;5065449;28;20439;-61
2022/09/06 02:02:16;;;;;;;9.70;5.57;;;14.40;99.90;;;;;;5074896;28;20444;-62
2022/09/06 02:04:51;;;;;;;10.97;5.53;;;14.40;99.90;;;;;;5064252;28;20442;-62
2022/09/06 02:07:22;;;;;;;5.83;5.20;;;14.40;99.90;;;;;;5065299;28;20428;-61
2022/09/06 02:09:58;;;;;;;5.90;5.30;;;14.40;99.90;;;;;;5062593;28;20448;-62
2022/09/06 02:12:26;;;;;;;7.63;5.10;;;14.40;99.90;;;;;;5036970;28;20457;-62
2022/09/06 02:14:59;;;;;;;6.13;4.93;;;14.40;99.90;;;;;;5056084;28;20474;-61
2022/09/06 02:17:30;;;;;;;5.97;5.37;;;14.40;99.90;;;;;;5061051;28;20446;-61
2022/09/06 02:20:04;;;;;;;7.67;5.50;;;14.30;99.90;;;;;;5063997;28;20440;-61
2022/09/06 02:22:35;;;;;;;8.40;5.50;;;14.30;99.90;;;;;;5059965;28;20452;-62
2022/09/06 02:25:03;;;;;;;8.33;5.60;;;14.30;99.90;;;;;;5066563;28;20561;-61
2022/09/06 02:27:29;;;;;;;9.27;5.60;;;14.30;99.90;;;;;;5039754;28;21023;-61
2022/09/06 02:29:55;;;;;;;7.47;5.17;;;14.30;99.90;;;;;;5064304;28;20440;-61
2022/09/06 02:32:22;;;;;;;5.60;5.00;;;14.30;99.90;;;;;;5064813;28;20194;-62
2022/09/06 02:34:55;;;;;;;6.80;5.80;;;14.30;99.90;;;;;;5060394;28;20175;-61
2022/09/06 02:37:24;;;;;;;7.40;5.33;;;14.30;99.90;;;;;;5062903;28;21016;-62
2022/09/06 02:39:51;;;;;;;8.73;5.80;;;14.30;99.90;;;;;;5064693;28;20417;-62
2022/09/06 02:42:16;;;;;;;7.43;5.33;;;14.30;99.90;;;;;;5067290;28;20471;-61
2022/09/06 02:44:42;;;;;;;6.90;5.80;;;14.30;99.90;;;;;;5063116;28;20471;-62
2022/09/06 02:47:08;;;;;;;6.67;5.80;;;14.30;99.90;;;;;;5064373;28;20221;-62
2022/09/06 02:49:34;;;;;;;8.70;6.30;;;14.30;99.90;;;;;;5065038;28;20732;-62
2022/09/06 02:51:59;;;;;;;10.20;6.23;;;14.30;99.90;;;;;;5067626;28;20171;-62
2022/09/06 02:54:25;;;;;;;11.57;5.73;;;14.30;99.90;;;;;;5062340;28;20190;-61
2022/09/06 02:56:50;;;;;;;6.50;5.53;;;14.30;99.90;;;;;;5052349;28;20179;-61
2022/09/06 02:59:16;;;;;;;9.30;5.50;;;14.30;99.90;;;;;;5065994;28;20182;-61
2022/09/06 03:01:42;;;;;;;7.33;5.70;;;14.20;99.90;;;;;;5060702;28;20190;-62
2022/09/06 03:04:07;;;;;;;6.13;5.03;;;14.30;99.90;;;;;;5061354;28;20285;-61
2022/09/06 03:06:33;;;;;;;11.33;5.50;;;14.30;99.90;;;;;;5046257;28;20185;-61
2022/09/06 03:08:59;;;;;;;7.40;5.70;;;14.20;99.90;;;;;;5061618;28;20203;-61
2022/09/06 03:11:25;;;;;;;8.23;5.13;;;14.30;99.90;;;;;;5058586;28;20445;-61
2022/09/06 03:13:51;;;;;;;9.43;5.37;;;14.20;99.90;;;;;;5063890;28;20690;-61
2022/09/06 03:16:18;;;;;;;8.17;5.43;;;14.20;99.90;;;;;;5075092;28;20416;-61
2022/09/06 03:18:44;;;;;;;9.50;6.40;;;14.20;99.90;;;;;;5062603;28;20454;-61
2022/09/06 03:21:10;;;;;;;9.10;5.83;;;14.20;99.90;;;;;;5066156;28;20520;-62
2022/09/06 03:23:38;;;;;;;9.40;6.00;;;14.20;99.90;;;;;;5070104;28;20316;-61
2022/09/06 03:26:04;;;;;;;8.00;5.57;;;14.10;99.90;;;;;;5066947;28;20497;-61
2022/09/06 03:28:30;;;;;;;7.00;5.53;;;14.10;99.90;;;;;;5064719;28;20470;-62
2022/09/06 03:30:56;;;;;;;5.37;4.87;;;14.10;99.90;;;;;;5064252;28;20437;-61
2022/09/06 03:33:22;;;;;;;7.20;5.50;;;14.10;99.90;;;;;;5067903;28;20207;-62
2022/09/06 03:35:59;;;;;;;9.90;6.60;;;14.00;99.90;;;;;;5063511;28;20193;-61
2022/09/06 03:38:27;;;;;;;8.53;6.07;;;14.10;99.90;;;;;;5068144;28;20432;-61
2022/09/06 03:40:53;;;;;;;7.90;5.60;;;14.10;99.90;;;;;;5065096;28;20443;-61
2022/09/06 03:43:20;;;;;;;9.93;6.10;;;14.00;99.90;;;;;;5048372;28;20981;-60
2022/09/06 03:45:51;;;;;;;9.43;5.57;;;14.10;99.90;;;;;;5067224;28;20524;-62
2022/09/06 03:48:18;;;;;;;5.90;5.10;;;14.10;99.90;;;;;;5067529;28;20460;-61
2022/09/06 03:50:48;;;;;;;5.77;5.20;;;14.10;99.90;;;;;;5065363;28;20578;-62
2022/09/06 03:53:15;;;;;;;9.90;6.00;;;14.10;99.90;;;;;;5064671;28;20448;-62
2022/09/06 03:55:45;;;;;;;6.93;6.23;;;14.10;99.90;;;;;;5066066;28;20429;-61
2022/09/06 03:58:12;;;;;;;6.93;5.20;;;14.10;99.90;;;;;;5061109;28;20817;-61
2022/09/06 04:00:37;;;;;;;6.80;5.17;;;14.10;99.90;;;;;;5065981;28;20490;-61
2022/09/06 04:03:03;;;;;;;6.30;5.27;;;14.10;99.90;;;;;;5062780;28;20871;-60
2022/09/06 04:05:29;;;;;;;9.50;5.60;;;14.10;99.90;;;;;;5063065;28;20213;-58
2022/09/06 04:07:54;;;;;;;11.20;5.37;;;14.20;99.90;;;;;;5058673;28;20198;-59
2022/09/06 04:10:20;;;;;;;5.90;5.20;;;14.10;99.90;;;;;;5057831;28;20221;-58
2022/09/06 04:12:45;;;;;;;6.23;5.13;;;14.10;99.90;;;;;;5044219;28;20206;-60
2022/09/06 04:15:11;;;;;;;10.30;5.70;;;14.10;99.90;;;;;;5051216;28;20597;-59
2022/09/06 04:17:37;;;;;;;9.73;6.23;;;14.00;99.90;;;;;;5066510;28;20185;-62
2022/09/06 04:20:04;;;;;;;6.60;5.70;;;14.00;99.90;;;;;;5054777;28;20170;-61
2022/09/06 04:22:30;;;;;;;8.73;5.90;;;14.00;99.90;;;;;;5061958;28;20457;-61
2022/09/06 04:24:57;;;;;;;9.13;5.77;;;14.00;99.90;;;;;;5060757;28;20828;-60
2022/09/06 04:27:22;;;;;;;8.10;5.60;;;13.90;99.90;;;;;;5057662;28;20726;-60
2022/09/06 04:29:48;;;;;;;10.63;6.13;;;13.90;99.90;;;;;;5060623;28;20447;-61
2022/09/06 04:32:13;;;;;;;10.40;6.43;;;13.90;99.90;;;;;;5058852;28;20273;-61
2022/09/06 04:34:39;;;;;;;9.30;6.30;;;13.90;99.90;;;;;;5063692;28;20194;-62
2022/09/06 04:37:05;;;;;;;9.80;5.90;;;13.90;99.90;;;;;;5062946;28;20546;-62
2022/09/06 04:39:30;;;;;;;9.63;5.87;;;13.90;99.90;;;;;;5062205;28;20193;-62
2022/09/06 04:41:56;;;;;;;10.53;6.30;;;13.90;99.90;;;;;;5039176;28;20280;-61
2022/09/06 04:44:21;;;;;;;7.47;6.10;;;13.90;99.90;;;;;;5061443;28;20561;-62
2022/09/06 04:46:47;;;;;;;10.10;6.37;;;13.90;99.90;;;;;;5052779;28;20197;-61
2022/09/06 04:49:13;;;;;;;15.40;6.73;;;13.90;99.90;;;;;;5063604;28;20217;-61
2022/09/06 04:51:39;;;;;;;9.57;6.30;;;13.90;99.90;;;;;;5060389;28;20437;-60
2022/09/06 04:54:05;;;;;;;9.30;5.70;;;13.90;99.90;;;;;;5063438;28;20233;-61
2022/09/06 04:56:31;;;;;;;7.67;5.93;;;13.90;99.90;;;;;;5066078;28;20572;-61
2022/09/06 04:58:57;;;;;;;9.27;7.10;;;13.90;99.90;;;;;;5059069;28;20949;-60
2022/09/06 05:01:24;;;;;;;7.07;6.37;;;13.90;99.90;;;;;;5069605;28;20436;-60
2022/09/06 05:03:50;;;;;;;7.90;6.80;;;13.90;99.90;;;;;;5061366;28;20279;-61
2022/09/06 05:06:21;;;;;;;10.80;7.67;;;13.90;99.90;;;;;;5048696;28;20726;-61
2022/09/06 05:08:48;;;;;;;17.37;11.10;;;13.90;99.90;;;;;;5066997;28;20889;-61
2022/09/06 05:11:14;;;;;;;18.60;9.13;;;13.90;99.90;;;;;;5059118;28;20425;-61
2022/09/06 05:13:40;;;;;;;9.50;8.27;;;13.80;99.90;;;;;;5047437;28;20455;-61
2022/09/06 05:16:07;;;;;;;8.20;7.23;;;13.80;99.90;;;;;;5066370;28;20429;-61
2022/09/06 05:18:33;;;;;;;9.70;8.03;;;13.90;99.90;;;;;;5065960;28;20446;-63
2022/09/06 05:20:59;;;;;;;7.03;6.10;;;13.90;99.90;;;;;;5047549;28;20472;-61
2022/09/06 05:23:26;;;;;;;7.17;5.80;;;13.90;99.90;;;;;;5060944;28;21000;-61
2022/09/06 05:25:53;;;;;;;9.50;6.17;;;13.80;99.90;;;;;;5065093;28;20804;-61
2022/09/06 05:28:19;;;;;;;10.60;6.20;;;13.80;99.90;;;;;;5060151;28;20482;-61
2022/09/06 05:30:45;;;;;;;8.93;6.03;;;13.80;99.90;;;;;;5065145;28;20926;-61
2022/09/06 05:33:12;;;;;;;10.33;5.60;;;13.80;99.90;;;;;;5073385;28;20544;-61
2022/09/06 05:35:38;;;;;;;12.43;5.70;;;13.80;99.90;;;;;;5059022;28;20800;-62
2022/09/06 05:38:04;;;;;;;10.77;6.07;;;13.80;99.90;;;;;;5062854;28;20448;-62
2022/09/06 05:40:30;;;;;;;6.87;6.10;;;13.80;99.90;;;;;;5065038;28;20190;-61
2022/09/06 05:42:55;;;;;;;8.43;5.87;;;13.90;99.90;;;;;;5065474;28;20209;-61
2022/09/06 05:45:21;;;;;;;13.13;6.30;;;13.90;99.90;;;;;;5060670;28;20544;-62
2022/09/06 05:47:46;;;;;;;7.80;5.77;;;14.00;99.90;;;;;;5064160;28;20239;-61
2022/09/06 05:50:12;;;;;;;6.30;5.70;;;14.00;99.90;;;;;;5051775;28;20204;-61
2022/09/06 05:52:38;;;;;;;12.80;6.00;;;14.10;99.90;;;;;;5062814;28;20198;-61
2022/09/06 05:55:05;;;;;;;10.03;6.20;;;14.10;99.90;;;;;;5063962;28;20224;-62
2022/09/06 05:57:31;;;;;;;9.17;6.70;;;14.20;99.90;;;;;;5066563;28;20444;-61
2022/09/06 05:59:57;;;;;;;7.10;5.80;;;14.20;99.90;;;;;;5048466;28;20432;-61
2022/09/06 06:02:24;;;;;;;8.93;6.33;;;14.30;99.90;;;;;;5068446;28;20505;-61
2022/09/06 06:04:50;;;;;;;11.67;6.30;;;14.30;99.90;;;;;;5071290;28;20219;-61
2022/09/06 06:07:17;;;;;;;7.83;6.00;;;14.40;99.90;;;;;;5067190;28;20440;-61
2022/09/06 06:09:43;;;;;;;8.60;6.20;;;14.40;99.90;;;;;;5062974;28;20459;-61
2022/09/06 06:12:09;;;;;;;9.97;5.70;;;14.40;99.90;;;;;;5061162;28;20483;-61
2022/09/06 06:14:34;;;;;;;10.10;5.97;;;14.50;99.90;;;;;;5061275;28;20433;-61
2022/09/06 06:17:01;;;;;;;8.53;6.43;;;14.50;99.90;;;;;;5068100;28;20427;-61
2022/09/06 06:19:27;;;;;;;7.97;5.83;;;14.60;99.90;;;;;;5064196;28;20190;-61
2022/09/06 06:21:54;;;;;;;12.23;6.17;;;14.60;99.90;;;;;;5070842;28;20435;-61
2022/09/06 06:24:20;;;;;;;10.80;6.73;;;14.70;99.90;;;;;;5062018;28;20472;-61
2022/09/06 06:26:45;;;;;;;14.53;5.70;;;14.70;99.90;;;;;;5063213;28;20433;-65
2022/09/06 06:29:11;;;;;;;7.50;6.30;;;14.90;99.90;;;;;;5062608;28;20263;-62
2022/09/06 06:31:38;;;;;;;6.37;5.63;;;14.90;99.90;;;;;;5069056;28;20666;-61
2022/09/06 06:34:04;;;;;;;7.30;5.70;;;15.00;99.90;;;;;;5061779;28;20195;-62
2022/09/06 06:36:32;;;;;;;7.87;5.60;;;15.10;99.90;;;;;;5061135;28;20428;-61
2022/09/06 06:38:58;;;;;;;8.87;6.67;;;15.10;99.90;;;;;;5070074;28;20467;-61
2022/09/06 06:41:27;;;;;;;8.33;5.53;;;15.20;99.90;;;;;;5067665;28;20440;-61
2022/09/06 06:43:58;;;;;;;8.10;5.70;;;15.30;99.90;;;;;;5058929;28;20475;-61
2022/09/06 06:46:25;;;;;;;8.13;6.77;;;15.30;99.90;;;;;;5067726;28;20436;-61
2022/09/06 06:48:53;;;;;;;7.70;6.00;;;15.40;99.90;;;;;;5055869;28;20471;-62
2022/09/06 06:51:20;;;;;;;6.80;5.73;;;15.40;99.90;;;;;;5059888;28;20455;-62
2022/09/06 06:53:46;;;;;;;7.10;5.53;;;15.60;99.90;;;;;;5066605;28;20459;-61
2022/09/06 06:56:44;;;;;;;10.13;6.73;;;15.60;99.90;;;;;;5067840;28;20431;-62
2022/09/06 06:59:10;;;;;;;7.53;5.83;;;15.80;99.90;;;;;;5063951;28;20438;-63
2022/09/06 07:01:36;;;;;;;11.20;6.57;;;15.90;99.90;;;;;;5069155;28;20490;-62
2022/09/06 07:04:02;;;;;;;9.23;6.30;;;16.10;99.90;;;;;;5069357;28;20452;-62
2022/09/06 07:06:28;;;;;;;8.83;6.80;;;16.10;99.90;;;;;;5070895;28;20432;-62
2022/09/06 07:08:58;;;;;;;7.60;6.73;;;16.20;99.90;;;;;;5068533;28;20447;-61
2022/09/06 07:11:24;;;;;;;8.53;6.37;;;16.30;99.90;;;;;;5069740;28;20455;-61
2022/09/06 07:13:50;;;;;;;11.93;6.10;;;16.40;99.90;;;;;;5069623;28;20514;-64
2022/09/06 07:16:21;;;;;;;11.20;6.30;;;16.50;99.90;;;;;;5067545;28;20436;-61
2022/09/06 07:18:51;;;;;;;9.13;6.90;;;16.50;99.90;;;;;;5066599;28;20206;-62
2022/09/06 07:21:25;;;;;;;9.40;7.80;;;16.60;99.90;;;;;;5068973;28;20558;-62
2022/09/06 07:23:52;;;;;;;11.07;8.27;;;16.70;99.90;;;;;;5066816;28;20459;-61
2022/09/06 07:26:24;;;;;;;16.03;8.23;;;16.80;99.90;;;;;;5068206;28;20432;-61
2022/09/06 07:28:54;;;;;;;12.67;9.10;;;16.80;99.90;;;;;;5047426;28;20515;-61
2022/09/06 07:31:20;;;;;;;12.60;8.70;;;16.90;99.90;;;;;;5067340;28;20837;-62
2022/09/06 07:33:45;;;;;;;12.47;8.17;;;17.00;99.90;;;;;;5069495;28;20528;-61
2022/09/06 07:36:11;;;;;;;12.63;9.13;;;17.00;99.90;;;;;;5068090;28;20430;-61
2022/09/06 07:38:37;;;;;;;15.00;8.47;;;17.10;99.90;;;;;;5067223;28;20197;-62
2022/09/06 07:41:07;;;;;;;12.70;9.53;;;17.10;99.90;;;;;;5068946;28;20197;-63
2022/09/06 07:43:33;;;;;;;14.60;9.73;;;17.20;99.90;;;;;;5070482;28;20216;-62
2022/09/06 07:46:09;;;;;;;15.93;10.33;;;17.30;99.90;;;;;;5068585;28;20437;-61
2022/09/06 07:48:36;;;;;;;15.47;11.40;;;17.30;99.90;;;;;;5074092;28;21258;-61
2022/09/06 07:51:10;;;;;;;16.30;11.23;;;17.50;99.90;;;;;;5068749;28;20953;-62
2022/09/06 07:53:38;;;;;;;16.63;8.80;;;17.60;99.90;;;;;;5069963;28;20428;-61
2022/09/06 07:56:06;;;;;;;18.73;9.40;;;17.70;99.90;;;;;;5061738;28;21006;-61
2022/09/06 07:58:32;;;;;;;11.90;7.63;;;17.80;99.90;;;;;;5063187;28;20432;-61
2022/09/06 08:01:34;;;;;;;17.23;8.20;;;18.00;99.90;;;;;;5066201;28;20430;-62
2022/09/06 08:04:02;;;;;;;10.10;7.30;;;18.20;99.90;;;;;;4979997;28;20900;-61
2022/09/06 08:06:30;;;;;;;9.80;7.70;;;18.40;99.90;;;;;;5049776;28;20432;-61
2022/09/06 08:08:56;;;;;;;18.37;8.40;;;18.60;99.90;;;;;;5069656;28;20448;-62
2022/09/06 08:11:25;;;;;;;14.50;7.20;;;18.80;99.90;;;;;;5067983;28;20523;-61
2022/09/06 08:13:53;;;;;;;11.23;7.03;;;19.00;99.90;;;;;;5065341;28;20444;-64
2022/09/06 08:16:20;;;;;;;8.60;7.27;;;19.20;99.90;;;;;;5064210;28;20521;-63
2022/09/06 08:18:50;;;;;;;10.83;7.70;;;19.30;99.90;;;;;;5048512;28;20440;-61
2022/09/06 08:21:16;;;;;;;8.87;7.27;;;19.40;99.90;;;;;;5064453;28;20433;-61
2022/09/06 08:23:47;;;;;;;14.80;6.80;;;19.50;99.90;;;;;;5068962;28;20444;-62
2022/09/06 08:26:14;;;;;;;9.67;7.00;;;19.60;99.90;;;;;;5068258;28;20215;-62
2022/09/06 08:28:40;;;;;;;8.53;6.60;;;19.80;99.90;;;;;;5065459;28;20460;-62
2022/09/06 08:31:11;;;;;;;13.83;6.50;;;19.90;99.90;;;;;;5062310;28;20426;-62
2022/09/06 08:33:37;;;;;;;13.73;6.60;;;20.00;99.90;;;;;;5040674;28;20221;-62
2022/09/06 08:36:04;;;;;;;10.97;6.30;;;20.20;99.90;;;;;;5047974;28;20570;-61
2022/09/06 08:38:30;;;;;;;9.50;6.23;;;20.20;99.90;;;;;;5069563;28;20439;-62
2022/09/06 08:41:07;;;;;;;12.30;6.07;;;20.30;99.90;;;;;;5060324;28;20429;-65
2022/09/06 08:43:33;;;;;;;7.40;5.77;;;20.40;99.90;;;;;;5066878;28;20715;-61
2022/09/06 08:45:59;;;;;;;15.57;6.50;;;20.40;99.90;;;;;;5062468;28;20519;-61
2022/09/06 08:48:30;;;;;;;12.83;7.40;;;20.40;99.90;;;;;;5065650;28;21100;-61
2022/09/06 08:51:18;;;;;;;14.67;6.90;;;20.40;99.90;;;;;;5067096;28;20259;-61
2022/09/06 08:53:47;;;;;;;12.53;7.10;;;20.50;99.90;;;;;;5065311;28;20460;-61
2022/09/06 08:56:31;;;;;;;7.80;6.30;;;20.60;99.90;;;;;;5065152;28;20432;-62
2022/09/06 08:59:12;;;;;;;10.67;6.63;;;20.70;99.90;;;;;;5058932;28;20440;-62
2022/09/06 09:01:52;;;;;;;7.53;6.27;;;20.80;99.90;;;;;;5061611;28;20512;-61
2022/09/06 09:04:22;;;;;;;10.27;6.10;;;21.00;99.90;;;;;;5068087;28;20486;-61
2022/09/06 09:06:53;;;;;;;12.00;5.77;;;21.20;99.90;;;;;;5067012;28;21075;-61
2022/09/06 09:09:19;;;;;;;12.33;6.03;;;21.30;99.90;;;;;;5066058;28;20515;-61
2022/09/06 09:11:49;;;;;;;8.53;6.00;;;21.40;99.90;;;;;;5062565;28;20848;-62
2022/09/06 09:14:21;;;;;;;8.80;6.03;;;21.50;99.90;;;;;;5062718;28;20214;-62
2022/09/06 09:16:51;;;;;;;8.60;5.87;;;21.50;99.90;;;;;;5062597;28;20444;-62
2022/09/06 09:19:17;;;;;;;5.70;5.10;;;21.50;99.90;;;;;;5054444;28;20425;-62
2022/09/06 09:21:42;;;;;;;11.13;5.20;;;21.50;99.90;;;;;;5047028;28;20432;-63
2022/09/06 09:24:11;;;;;;;7.63;5.60;;;21.40;99.90;;;;;;5060947;28;20294;-61
2022/09/06 09:26:53;;;;;;;12.30;6.27;;;21.40;99.90;;;;;;5055202;28;20559;-61
2022/09/06 09:29:19;;;;;;;12.90;6.07;;;21.30;99.90;;;;;;5059515;28;20469;-61
2022/09/06 09:31:48;;;;;;;12.53;6.00;;;21.20;99.90;;;;;;5061952;28;20457;-61
2022/09/06 09:34:34;;;;;;;12.10;5.97;;;21.20;99.90;;;;;;5058603;28;20190;-63
2022/09/06 09:37:21;;;;;;;9.40;5.50;;;21.10;99.90;;;;;;5059400;28;20507;-62
2022/09/06 09:39:48;;;;;;;8.73;5.70;;;21.00;99.90;;;;;;5044831;28;20864;-63
2022/09/06 09:42:34;;;;;;;10.90;5.60;;;21.00;99.90;;;;;;5035467;28;21027;-63
2022/09/06 09:45:01;;;;;;;9.97;5.20;;;20.90;99.90;;;;;;5058145;28;21049;-63
2022/09/06 09:47:32;;;;;;;9.37;5.73;;;20.90;99.90;;;;;;5062403;28;20440;-62
2022/09/06 09:49:58;;;;;;;7.83;5.57;;;20.80;99.90;;;;;;5057274;28;20455;-64
2022/09/06 09:52:26;;;;;;;10.33;6.20;;;20.80;99.90;;;;;;5060343;28;20867;-64
2022/09/06 09:55:02;;;;;;;15.20;6.33;;;20.70;99.90;;;;;;5058340;28;20441;-62
2022/09/06 09:57:31;;;;;;;10.50;5.47;;;20.60;99.90;;;;;;5057336;28;20420;-62
2022/09/06 10:00:00;;;;;;;12.43;6.10;;;20.60;99.90;;;;;;5054263;28;20421;-62
2022/09/06 10:02:44;;;;;;;10.63;5.70;;;20.50;99.90;;;;;;5057885;28;20453;-63
2022/09/06 10:05:12;;;;;;;14.03;6.67;;;20.40;99.90;;;;;;5052906;28;20440;-64
2022/09/06 10:07:51;;;;;;;8.83;6.10;;;20.40;99.90;;;;;;5052399;28;20473;-64
2022/09/06 10:10:21;;;;;;;9.70;6.23;;;20.40;99.90;;;;;;5055487;28;20440;-62
2022/09/06 10:12:47;;;;;;;15.53;6.73;;;20.30;99.90;;;;;;5059186;28;20741;-61
2022/09/06 10:15:36;;;;;;;16.03;7.47;;;20.30;99.90;;;;;;5059230;28;20436;-63
2022/09/06 10:18:02;;;;;;;10.90;6.70;;;20.20;99.90;;;;;;5034098;28;20296;-65
2022/09/06 10:20:42;;;;;;;14.83;7.50;;;20.20;99.90;;;;;;5049935;28;20483;-62
2022/09/06 10:23:31;;;;;;;10.33;6.67;;;20.20;99.90;;;;;;5057521;28;20444;-61
2022/09/06 10:26:27;;;;;;;15.77;7.50;;;20.10;99.90;;;;;;5055389;28;20440;-63
2022/09/06 10:29:10;;;;;;;24.07;7.60;;;20.00;99.90;;;;;;5031748;28;20452;-62
2022/09/06 10:31:38;;;;;;;19.10;7.90;;;20.00;99.90;;;;;;5064331;28;20440;-61
2022/09/06 10:34:27;;;;;;;14.73;7.43;;;20.00;99.90;;;;;;5044833;28;20460;-61
2022/09/06 10:37:15;;;;;;;12.93;8.10;;;19.90;99.90;;;;;;5060593;28;20433;-62
2022/09/06 10:40:05;;;;;;;14.20;7.50;;;20.00;99.90;;;;;;5061515;28;20436;-62
2022/09/06 10:42:30;;;;;;;10.10;7.07;;;20.00;99.90;;;;;;5062289;28;20448;-61
2022/09/06 10:45:21;;;;;;;12.50;7.30;;;20.10;99.90;;;;;;5057274;28;20501;-62
2022/09/06 10:47:52;;;;;;;14.83;8.00;;;20.20;99.90;;;;;;5063974;28;20983;-63
2022/09/06 10:50:18;;;;;;;14.27;8.40;;;20.30;99.90;;;;;;5057608;28;20634;-60
2022/09/06 10:52:50;;;;;;;26.20;12.03;;;20.40;99.90;;;;;;5063549;28;20886;-61
2022/09/06 10:55:17;;;;;;;11.53;8.20;;;20.60;99.90;;;;;;5056433;28;20895;-62
2022/09/06 10:57:54;;;;;;;12.43;7.03;;;20.70;99.90;;;;;;5058050;28;20433;-62
2022/09/06 11:00:20;;;;;;;12.23;7.57;;;20.80;99.90;;;;;;5060551;28;21063;-62
2022/09/06 11:02:54;;;;;;;9.37;6.20;;;21.00;99.90;;;;;;5067217;28;21051;-63
2022/09/06 11:05:27;;;;;;;16.33;7.10;;;21.10;99.90;;;;;;5059997;28;20175;-62
2022/09/06 11:07:59;;;;;;;9.40;6.43;;;21.30;99.90;;;;;;5061275;28;20456;-64
2022/09/06 11:10:33;;;;;;;17.43;8.23;;;21.60;99.90;;;;;;5058753;28;20468;-63
2022/09/06 11:13:12;;;;;;;8.73;6.27;;;21.80;99.90;;;;;;5056615;28;20511;-63
2022/09/06 11:15:56;;;;;;;9.93;6.30;;;22.00;99.90;;;;;;5064276;28;20929;-63
2022/09/06 11:18:37;;;;;;;14.33;7.30;;;22.20;99.90;;;;;;5064066;28;21097;-63
2022/09/06 11:21:14;;;;;;;11.67;6.17;;;22.30;99.90;;;;;;5057722;28;20544;-63
2022/09/06 11:23:48;;;;;;;20.83;7.57;;;22.50;99.90;;;;;;5060631;28;20459;-63
2022/09/06 11:26:43;;;;;;;12.30;6.97;;;22.60;99.90;;;;;;5055647;28;20446;-63
2022/09/06 11:29:18;;;;;;;12.80;6.07;;;22.70;99.90;;;;;;5062487;28;20518;-63
2022/09/06 11:32:20;;;;;;;18.23;6.77;;;22.80;99.90;;;;;;5057402;28;20444;-64
2022/09/06 11:34:56;;;;;;;9.30;5.60;;;23.00;99.90;;;;;;5059099;28;20454;-63
2022/09/06 11:37:29;;;;;;;15.93;6.40;;;23.50;99.90;;;;;;5066703;28;20439;-64
2022/09/06 11:40:28;;;;;;;14.23;5.10;;;23.70;99.90;;;;;;5060246;28;20483;-64
2022/09/06 11:42:54;;;;;;;16.30;6.20;;;24.00;99.90;;;;;;5051191;28;20960;-63
2022/09/06 11:45:39;;;;;;;16.73;6.00;;;24.00;99.90;;;;;;5059539;28;20475;-61
2022/09/06 11:48:23;;;;;;;9.30;5.37;;;24.00;99.90;;;;;;5049474;28;20752;-62
2022/09/06 11:50:57;;;;;;;10.93;6.60;;;24.00;99.90;;;;;;5056165;28;20437;-62
2022/09/06 11:53:29;;;;;;;11.40;6.23;;;24.10;99.90;;;;;;5057615;28;21248;-59
2022/09/06 11:56:01;;;;;;;9.73;5.60;;;24.20;97.60;;;;;;5054479;28;20882;-59
2022/09/06 11:58:33;;;;;;;11.80;6.07;;;24.10;99.10;;;;;;5062516;28;20445;-59
2022/09/06 12:01:11;;;;;;;8.40;5.17;;;24.10;98.10;;;;;;5058827;28;20929;-59
2022/09/06 12:03:52;;;;;;;8.53;4.90;;;24.00;98.10;;;;;;5062710;28;20497;-59
2022/09/06 12:06:20;;;;;;;10.80;5.40;;;23.90;98.10;;;;;;5061792;28;20863;-58
2022/09/06 12:08:53;;;;;;;8.47;5.47;;;23.80;97.60;;;;;;5060659;28;20457;-58
2022/09/06 12:11:41;;;;;;;15.33;5.43;;;23.80;96.70;;;;;;5056995;28;20429;-59
2022/09/06 12:14:09;;;;;;;14.47;5.60;;;23.70;94.50;;;;;;5057175;28;20456;-61
2022/09/06 12:16:56;;;;;;;8.90;4.87;;;23.50;95.60;;;;;;5057753;28;20429;-59
2022/09/06 12:19:43;;;;;;;10.70;5.10;;;23.30;95.50;;;;;;5062298;28;20911;-61
2022/09/06 12:22:36;;;;;;;9.60;4.93;;;23.00;96.70;;;;;;5056369;28;20511;-60
2022/09/06 12:25:02;;;;;;;15.20;5.93;;;22.90;99.90;;;;;;5067299;28;20940;-59
2022/09/06 12:27:43;;;;;;;9.97;5.47;;;22.80;99.90;;;;;;5067771;28;20447;-60
2022/09/06 12:30:12;;;;;;;9.63;6.03;;;22.80;99.90;;;;;;5060716;28;20182;-60
2022/09/06 12:32:44;;;;;;;8.40;5.23;;;22.70;99.90;;;;;;5056091;28;21115;-59
2022/09/06 12:35:19;;;;;;;10.80;5.40;;;22.70;99.90;;;;;;5068099;28;20983;-60
2022/09/06 12:37:50;;;;;;;10.00;5.63;;;22.60;99.90;;;;;;5069696;28;20440;-60
2022/09/06 12:40:18;;;;;;;9.30;5.07;;;22.50;99.90;;;;;;5061512;28;20426;-59
2022/09/06 12:42:47;;;;;;;10.20;5.17;;;22.50;99.90;;;;;;5048977;28;20454;-60
2022/09/06 12:45:13;;;;;;;11.20;5.30;;;22.40;99.90;;;;;;5049674;28;20490;-59
2022/09/06 12:47:39;;;;;;;10.80;5.70;;;22.30;99.90;;;;;;5050130;28;20405;-59
2022/09/06 12:50:21;;;;;;;14.37;5.50;;;22.20;99.90;;;;;;5060912;28;20503;-59
2022/09/06 12:52:55;;;;;;;8.50;5.57;;;22.20;99.90;;;;;;5065445;28;20189;-59
2022/09/06 12:55:31;;;;;;;13.37;5.97;;;22.10;99.90;;;;;;5072300;28;20407;-59
2022/09/06 12:58:00;;;;;;;13.83;6.33;;;22.10;99.90;;;;;;5060552;28;20454;-60
2022/09/06 13:00:33;;;;;;;9.47;6.00;;;22.10;99.90;;;;;;5058024;28;20425;-60
2022/09/06 13:03:08;;;;;;;7.83;5.50;;;22.00;99.90;;;;;;5052057;28;20524;-59